createdAt,value
2023-04-02T00:00:12.069Z,984.36
2023-04-02T00:01:12.009Z,984.36
2023-04-02T00:02:12.050Z,984.46
2023-04-02T00:03:12.032Z,984.38
2023-04-02T00:04:12.150Z,984.46
2023-04-02T00:05:11.991Z,984.47
2023-04-02T00:06:12.004Z,984.53
2023-04-02T00:07:11.981Z,984.51
2023-04-02T00:08:12.004Z,984.47
2023-04-02T00:09:11.973Z,984.45
2023-04-02T00:10:11.957Z,984.56
2023-04-02T00:11:11.989Z,984.52
2023-04-02T00:12:11.937Z,984.55
2023-04-02T00:13:11.951Z,984.58
2023-04-02T00:14:11.916Z,984.57
2023-04-02T00:15:11.915Z,984.58
2023-04-02T00:16:12.040Z,984.51
2023-04-02T00:17:11.926Z,984.58
2023-04-02T00:18:11.904Z,984.67
2023-04-02T00:19:11.899Z,984.63
2023-04-02T00:20:11.935Z,984.72
2023-04-02T00:21:11.941Z,984.69
2023-04-02T00:22:11.912Z,984.73
2023-04-02T00:23:11.883Z,984.74
2023-04-02T00:24:11.892Z,984.77
2023-04-02T00:25:11.869Z,984.78
2023-04-02T00:26:11.874Z,984.79
2023-04-02T00:27:11.863Z,984.83
2023-04-02T00:28:11.849Z,984.89
2023-04-02T00:29:11.855Z,984.86
2023-04-02T00:30:11.838Z,984.82
2023-04-02T00:31:11.853Z,984.82
2023-04-02T00:32:11.944Z,984.90
2023-04-02T00:33:11.869Z,984.92
2023-04-02T00:34:11.815Z,984.96
2023-04-02T00:35:11.808Z,984.92
2023-04-02T00:36:11.840Z,984.92
2023-04-02T00:37:11.852Z,984.90
2023-04-02T00:38:11.798Z,984.95
2023-04-02T00:39:11.797Z,984.97
2023-04-02T00:40:11.777Z,984.93
2023-04-02T00:41:11.791Z,985.00
2023-04-02T00:42:11.803Z,985.04
2023-04-02T00:43:11.764Z,985.07
2023-04-02T00:44:11.796Z,985.10
2023-04-02T00:45:11.777Z,985.12
2023-04-02T00:46:11.781Z,985.11
2023-04-02T00:47:11.757Z,985.15
2023-04-02T00:48:11.768Z,985.12
2023-04-02T00:49:11.744Z,985.15
2023-04-02T00:50:11.785Z,985.20
2023-04-02T00:51:11.819Z,985.22
2023-04-02T00:52:11.748Z,985.18
2023-04-02T00:53:11.778Z,985.19
2023-04-02T00:54:11.733Z,985.25
2023-04-02T00:55:11.727Z,985.30
2023-04-02T00:56:11.730Z,985.27
2023-04-02T00:57:11.751Z,985.24
2023-04-02T00:58:11.723Z,985.33
2023-04-02T00:59:11.699Z,985.35
2023-04-02T01:00:11.726Z,985.32
2023-04-02T01:01:11.790Z,985.36
2023-04-02T01:02:11.714Z,985.40
2023-04-02T01:03:11.795Z,985.44
2023-04-02T01:04:11.708Z,985.45
2023-04-02T01:05:11.702Z,985.49
2023-04-02T01:06:11.696Z,985.42
2023-04-02T01:07:11.683Z,985.42
2023-04-02T01:08:11.678Z,985.54
2023-04-02T01:09:11.700Z,985.53
2023-04-02T01:10:11.640Z,985.61
2023-04-02T01:11:11.636Z,985.60
2023-04-02T01:12:11.648Z,985.61
2023-04-02T01:13:11.628Z,985.62
2023-04-02T01:14:11.675Z,985.55
2023-04-02T01:15:11.645Z,985.62
2023-04-02T01:16:11.699Z,985.68
2023-04-02T01:17:11.616Z,985.66
2023-04-02T01:18:11.599Z,985.70
2023-04-02T01:19:11.652Z,985.65
2023-04-02T01:20:11.594Z,985.73
2023-04-02T01:21:11.608Z,985.75
2023-04-02T01:22:11.589Z,985.73
2023-04-02T01:23:11.579Z,985.79
2023-04-02T01:24:11.604Z,985.81
2023-04-02T01:25:11.647Z,985.84
2023-04-02T01:26:12.314Z,985.84
2023-04-02T01:27:11.585Z,985.81
2023-04-02T01:28:11.568Z,985.86
2023-04-02T01:29:11.565Z,985.94
2023-04-02T01:30:11.582Z,985.92
2023-04-02T01:31:11.589Z,985.90
2023-04-02T01:32:11.577Z,985.90
2023-04-02T01:33:11.539Z,985.97
2023-04-02T01:34:11.578Z,985.90
2023-04-02T01:35:11.546Z,986.01
2023-04-02T01:36:11.595Z,986.08
2023-04-02T01:37:11.962Z,986.05
2023-04-02T01:38:11.538Z,986.03
2023-04-02T01:39:11.560Z,986.11
2023-04-02T01:40:11.525Z,986.10
2023-04-02T01:41:11.497Z,986.10
2023-04-02T01:42:11.525Z,986.24
2023-04-02T01:43:11.502Z,986.20
2023-04-02T01:44:11.501Z,986.22
2023-04-02T01:45:11.492Z,986.23
2023-04-02T01:46:11.532Z,986.24
2023-04-02T01:47:11.481Z,986.32
2023-04-02T01:48:11.481Z,986.30
2023-04-02T01:49:11.451Z,986.34
2023-04-02T01:50:11.531Z,986.34
2023-04-02T01:51:12.074Z,986.31
2023-04-02T01:52:11.450Z,986.31
2023-04-02T01:53:11.467Z,986.37
2023-04-02T01:54:11.483Z,986.41
2023-04-02T01:55:11.428Z,986.42
2023-04-02T01:56:11.480Z,986.46
2023-04-02T01:57:11.477Z,986.50
2023-04-02T01:58:11.486Z,986.51
2023-04-02T01:59:11.439Z,986.49
2023-04-02T02:00:11.423Z,986.50
2023-04-02T02:01:11.477Z,986.51
2023-04-02T02:02:11.448Z,986.53
2023-04-02T02:03:11.394Z,986.53
2023-04-02T02:04:11.417Z,986.58
2023-04-02T02:05:11.394Z,986.64
2023-04-02T02:06:11.400Z,986.63
2023-04-02T02:07:11.380Z,986.69
2023-04-02T02:08:11.383Z,986.66
2023-04-02T02:09:11.368Z,986.71
2023-04-02T02:10:11.382Z,986.64
2023-04-02T02:11:11.361Z,986.72
2023-04-02T02:12:11.346Z,986.75
2023-04-02T02:13:11.349Z,986.80
2023-04-02T02:14:11.384Z,986.80
2023-04-02T02:15:11.363Z,986.84
2023-04-02T02:16:11.347Z,986.85
2023-04-02T02:17:11.322Z,986.84
2023-04-02T02:18:11.355Z,986.88
2023-04-02T02:19:12.342Z,986.84
2023-04-02T02:20:11.365Z,986.93
2023-04-02T02:21:12.330Z,986.89
2023-04-02T02:22:11.307Z,986.91
2023-04-02T02:23:11.322Z,986.90
2023-04-02T02:24:11.307Z,987.02
2023-04-02T02:25:11.319Z,986.98
2023-04-02T02:26:11.283Z,987.02
2023-04-02T02:27:11.292Z,987.02
2023-04-02T02:28:11.270Z,987.03
2023-04-02T02:29:11.265Z,987.09
2023-04-02T02:30:11.329Z,987.04
2023-04-02T02:31:11.295Z,987.07
2023-04-02T02:32:11.335Z,987.09
2023-04-02T02:33:11.274Z,987.17
2023-04-02T02:34:11.246Z,987.21
2023-04-02T02:35:11.276Z,987.15
2023-04-02T02:36:11.283Z,987.19
2023-04-02T02:37:11.255Z,987.29
2023-04-02T02:38:11.234Z,987.25
2023-04-02T02:39:11.214Z,987.30
2023-04-02T02:40:11.212Z,987.31
2023-04-02T02:41:11.245Z,987.36
2023-04-02T02:42:11.200Z,987.36
2023-04-02T02:43:11.213Z,987.52
2023-04-02T02:44:11.199Z,987.49
2023-04-02T02:45:11.204Z,987.52
2023-04-02T02:46:11.266Z,987.56
2023-04-02T02:47:11.181Z,987.52
2023-04-02T02:48:11.170Z,987.62
2023-04-02T02:49:11.151Z,987.62
2023-04-02T02:50:11.174Z,987.57
2023-04-02T02:51:11.527Z,987.53
2023-04-02T02:52:11.216Z,987.67
2023-04-02T02:53:11.168Z,987.67
2023-04-02T02:54:11.175Z,987.68
2023-04-02T02:55:11.177Z,987.72
2023-04-02T02:56:11.138Z,987.77
2023-04-02T02:57:11.216Z,987.78
2023-04-02T02:58:11.168Z,987.79
2023-04-02T02:59:11.135Z,987.77
2023-04-02T03:00:11.113Z,987.83
2023-04-02T03:01:11.123Z,987.85
2023-04-02T03:02:11.163Z,987.83
2023-04-02T03:03:11.256Z,987.89
2023-04-02T03:04:11.153Z,987.91
2023-04-02T03:05:11.097Z,987.92
2023-04-02T03:06:11.091Z,987.93
2023-04-02T03:07:11.143Z,987.89
2023-04-02T03:08:11.124Z,987.93
2023-04-02T03:09:11.081Z,987.99
2023-04-02T03:10:11.080Z,987.98
2023-04-02T03:11:11.094Z,988.02
2023-04-02T03:12:11.061Z,988.14
2023-04-02T03:13:11.068Z,988.10
2023-04-02T03:14:11.037Z,988.13
2023-04-02T03:15:11.052Z,988.16
2023-04-02T03:16:11.044Z,988.16
2023-04-02T03:17:11.080Z,988.24
2023-04-02T03:18:11.063Z,988.16
2023-04-02T03:19:11.008Z,988.26
2023-04-02T03:20:11.018Z,988.21
2023-04-02T03:21:11.039Z,988.25
2023-04-02T03:22:11.005Z,988.27
2023-04-02T03:23:11.021Z,988.30
2023-04-02T03:24:11.024Z,988.33
2023-04-02T03:25:10.981Z,988.38
2023-04-02T03:26:10.991Z,988.39
2023-04-02T03:27:10.984Z,988.32
2023-04-02T03:28:11.023Z,988.40
2023-04-02T03:29:10.979Z,988.43
2023-04-02T03:30:11.004Z,988.44
2023-04-02T03:31:10.963Z,988.49
2023-04-02T03:32:10.971Z,988.45
2023-04-02T03:33:10.948Z,988.48
2023-04-02T03:34:10.973Z,988.51
2023-04-02T03:35:10.966Z,988.57
2023-04-02T03:36:10.950Z,988.59
2023-04-02T03:37:10.954Z,988.67
2023-04-02T03:38:10.926Z,988.63
2023-04-02T03:39:10.942Z,988.72
2023-04-02T03:40:10.957Z,988.73
2023-04-02T03:41:10.917Z,988.69
2023-04-02T03:42:10.893Z,988.81
2023-04-02T03:43:10.911Z,988.76
2023-04-02T03:44:10.917Z,988.77
2023-04-02T03:45:10.880Z,988.74
2023-04-02T03:46:10.963Z,988.78
2023-04-02T03:47:10.880Z,988.80
2023-04-02T03:48:10.867Z,988.87
2023-04-02T03:49:10.897Z,988.92
2023-04-02T03:50:10.889Z,988.91
2023-04-02T03:51:10.864Z,988.89
2023-04-02T03:52:10.970Z,988.95
2023-04-02T03:53:10.840Z,988.90
2023-04-02T03:54:10.855Z,988.99
2023-04-02T03:55:10.888Z,988.96
2023-04-02T03:56:10.847Z,988.97
2023-04-02T03:57:10.858Z,989.04
2023-04-02T03:58:10.812Z,989.00
2023-04-02T03:59:10.825Z,989.04
2023-04-02T04:00:10.812Z,989.09
2023-04-02T04:01:10.851Z,989.11
2023-04-02T04:02:10.779Z,989.12
2023-04-02T04:03:10.833Z,989.16
2023-04-02T04:04:10.872Z,989.14
2023-04-02T04:05:10.770Z,989.22
2023-04-02T04:06:10.804Z,989.17
2023-04-02T04:07:10.802Z,989.24
2023-04-02T04:08:10.767Z,989.24
2023-04-02T04:09:10.773Z,989.30
2023-04-02T04:10:10.744Z,989.29
2023-04-02T04:11:10.809Z,989.32
2023-04-02T04:12:10.775Z,989.34
2023-04-02T04:13:10.730Z,989.36
2023-04-02T04:14:10.716Z,989.43
2023-04-02T04:15:10.716Z,989.43
2023-04-02T04:16:10.738Z,989.45
2023-04-02T04:17:10.754Z,989.46
2023-04-02T04:18:10.696Z,989.45
2023-04-02T04:19:11.207Z,989.55
2023-04-02T04:20:10.689Z,989.57
2023-04-02T04:21:10.690Z,989.55
2023-04-02T04:22:10.727Z,989.56
2023-04-02T04:23:10.683Z,989.57
2023-04-02T04:24:10.698Z,989.64
2023-04-02T04:25:10.697Z,989.64
2023-04-02T04:26:10.658Z,989.67
2023-04-02T04:27:10.681Z,989.67
2023-04-02T04:28:10.702Z,989.68
2023-04-02T04:29:10.683Z,989.68
2023-04-02T04:30:10.643Z,989.69
2023-04-02T04:31:10.650Z,989.78
2023-04-02T04:32:10.701Z,989.76
2023-04-02T04:33:10.663Z,989.73
2023-04-02T04:34:10.642Z,989.82
2023-04-02T04:35:10.623Z,989.82
2023-04-02T04:36:10.624Z,989.85
2023-04-02T04:37:10.610Z,989.82
2023-04-02T04:38:10.626Z,989.83
2023-04-02T04:39:10.616Z,989.89
2023-04-02T04:40:10.597Z,989.90
2023-04-02T04:41:10.644Z,989.91
2023-04-02T04:42:10.577Z,989.91
2023-04-02T04:43:10.610Z,990.00
2023-04-02T04:44:10.555Z,990.05
2023-04-02T04:45:10.579Z,990.08
2023-04-02T04:46:10.608Z,990.01
2023-04-02T04:47:10.552Z,990.11
2023-04-02T04:48:10.572Z,990.05
2023-04-02T04:49:10.546Z,990.06
2023-04-02T04:50:10.548Z,990.02
2023-04-02T04:51:10.544Z,990.07
2023-04-02T04:52:10.527Z,990.10
2023-04-02T04:53:10.497Z,990.09
2023-04-02T04:54:10.526Z,990.14
2023-04-02T04:55:10.518Z,990.15
2023-04-02T04:56:18.838Z,990.22
2023-04-02T04:57:12.501Z,990.24
2023-04-02T04:58:10.504Z,990.27
2023-04-02T04:59:10.513Z,990.30
2023-04-02T05:00:10.462Z,990.33
2023-04-02T05:01:10.528Z,990.32
2023-04-02T05:02:10.481Z,990.32
2023-04-02T05:03:10.477Z,990.31
2023-04-02T05:04:10.482Z,990.40
2023-04-02T05:05:10.449Z,990.42
2023-04-02T05:06:10.460Z,990.39
2023-04-02T05:07:10.481Z,990.48
2023-04-02T05:08:10.419Z,990.52
2023-04-02T05:09:10.499Z,990.46
2023-04-02T05:10:10.436Z,990.56
2023-04-02T05:11:10.397Z,990.52
2023-04-02T05:12:10.430Z,990.55
2023-04-02T05:13:10.426Z,990.51
2023-04-02T05:14:10.406Z,990.55
2023-04-02T05:15:10.517Z,990.61
2023-04-02T05:16:10.429Z,990.59
2023-04-02T05:17:10.404Z,990.62
2023-04-02T05:18:10.385Z,990.70
2023-04-02T05:19:10.356Z,990.69
2023-04-02T05:20:10.357Z,990.73
2023-04-02T05:21:10.382Z,990.77
2023-04-02T05:22:10.351Z,990.77
2023-04-02T05:23:10.359Z,990.84
2023-04-02T05:24:10.328Z,990.81
2023-04-02T05:25:10.360Z,990.94
2023-04-02T05:26:10.348Z,990.91
2023-04-02T05:27:10.308Z,990.96
2023-04-02T05:28:10.355Z,990.97
2023-04-02T05:29:10.321Z,990.97
2023-04-02T05:30:10.322Z,991.01
2023-04-02T05:31:10.365Z,991.06
2023-04-02T05:32:10.296Z,991.02
2023-04-02T05:33:10.351Z,991.05
2023-04-02T05:34:10.366Z,991.10
2023-04-02T05:35:10.309Z,991.07
2023-04-02T05:36:10.304Z,991.13
2023-04-02T05:37:10.283Z,991.14
2023-04-02T05:38:10.309Z,991.15
2023-04-02T05:39:10.290Z,991.23
2023-04-02T05:40:10.294Z,991.18
2023-04-02T05:41:10.279Z,991.16
2023-04-02T05:42:10.234Z,991.23
2023-04-02T05:43:10.264Z,991.27
2023-04-02T05:44:10.268Z,991.24
2023-04-02T05:45:10.234Z,991.24
2023-04-02T05:46:10.292Z,991.32
2023-04-02T05:47:10.215Z,991.35
2023-04-02T05:48:10.217Z,991.32
2023-04-02T05:49:10.232Z,991.34
2023-04-02T05:50:10.197Z,991.40
2023-04-02T05:51:10.195Z,991.36
2023-04-02T05:52:10.188Z,991.44
2023-04-02T05:53:10.185Z,991.47
2023-04-02T05:54:10.188Z,991.45
2023-04-02T05:55:10.226Z,991.49
2023-04-02T05:56:10.211Z,991.50
2023-04-02T05:57:10.199Z,991.50
2023-04-02T05:59:11.150Z,991.54
2023-04-02T06:00:10.158Z,991.57
2023-04-02T06:01:10.175Z,991.60
2023-04-02T06:02:10.169Z,991.62
2023-04-02T06:03:10.225Z,991.67
2023-04-02T06:04:10.268Z,991.59
2023-04-02T06:05:10.143Z,991.76
2023-04-02T06:06:10.161Z,991.79
2023-04-02T06:07:10.131Z,991.83
2023-04-02T06:08:11.127Z,991.83
2023-04-02T06:09:10.114Z,991.86
2023-04-02T06:10:10.112Z,991.95
2023-04-02T06:11:10.097Z,991.90
2023-04-02T06:12:10.102Z,991.89
2023-04-02T06:13:10.078Z,991.90
2023-04-02T06:14:10.081Z,991.95
2023-04-02T06:15:10.069Z,992.00
2023-04-02T06:16:10.132Z,992.01
2023-04-02T06:17:10.072Z,991.98
2023-04-02T06:18:10.092Z,992.05
2023-04-02T06:19:10.093Z,992.11
2023-04-02T06:20:10.034Z,992.08
2023-04-02T06:21:10.051Z,992.10
2023-04-02T06:22:10.030Z,992.17
2023-04-02T06:23:10.043Z,992.16
2023-04-02T06:24:10.008Z,992.22
2023-04-02T06:25:10.012Z,992.20
2023-04-02T06:26:09.993Z,992.23
2023-04-02T06:27:09.996Z,992.26
2023-04-02T06:28:10.017Z,992.25
2023-04-02T06:29:10.004Z,992.28
2023-04-02T06:30:09.974Z,992.28
2023-04-02T06:31:10.001Z,992.38
2023-04-02T06:32:09.959Z,992.38
2023-04-02T06:33:09.980Z,992.44
2023-04-02T06:34:09.961Z,992.53
2023-04-02T06:35:09.945Z,992.50
2023-04-02T06:36:09.955Z,992.54
2023-04-02T06:37:09.936Z,992.53
2023-04-02T06:38:09.967Z,992.59
2023-04-02T06:39:09.960Z,992.59
2023-04-02T06:40:09.903Z,992.59
2023-04-02T06:41:09.905Z,992.63
2023-04-02T06:42:09.903Z,992.73
2023-04-02T06:43:09.925Z,992.76
2023-04-02T06:44:09.931Z,992.75
2023-04-02T06:45:09.949Z,992.74
2023-04-02T06:46:09.930Z,992.77
2023-04-02T06:47:09.891Z,992.75
2023-04-02T06:48:09.941Z,992.76
2023-04-02T06:49:09.833Z,992.84
2023-04-02T06:50:09.876Z,992.84
2023-04-02T06:51:09.871Z,992.90
2023-04-02T06:52:09.835Z,992.88
2023-04-02T06:53:09.840Z,992.90
2023-04-02T06:54:09.816Z,992.92
2023-04-02T06:55:09.873Z,992.91
2023-04-02T06:56:09.830Z,992.91
2023-04-02T06:57:09.862Z,993.00
2023-04-02T06:58:09.822Z,992.97
2023-04-02T06:59:09.838Z,993.00
2023-04-02T07:00:09.819Z,993.08
2023-04-02T07:01:09.835Z,993.11
2023-04-02T07:02:09.791Z,993.08
2023-04-02T07:03:09.807Z,993.12
2023-04-02T07:04:09.773Z,993.09
2023-04-02T07:05:09.810Z,993.15
2023-04-02T07:06:09.779Z,993.25
2023-04-02T07:07:09.758Z,993.24
2023-04-02T07:08:09.765Z,993.29
2023-04-02T07:09:09.728Z,993.34
2023-04-02T07:10:10.745Z,993.28
2023-04-02T07:11:09.785Z,993.38
2023-04-02T07:12:09.723Z,993.37
2023-04-02T07:13:09.757Z,993.41
2023-04-02T07:14:09.778Z,993.42
2023-04-02T07:15:09.708Z,993.41
2023-04-02T07:16:09.769Z,993.42
2023-04-02T07:17:09.704Z,993.48
2023-04-02T07:18:09.715Z,993.50
2023-04-02T07:19:09.694Z,993.48
2023-04-02T07:20:09.692Z,993.53
2023-04-02T07:21:09.647Z,993.58
2023-04-02T07:22:09.657Z,993.59
2023-04-02T07:23:09.645Z,993.65
2023-04-02T07:24:09.662Z,993.64
2023-04-02T07:25:09.641Z,993.70
2023-04-02T07:26:09.628Z,993.67
2023-04-02T07:27:09.644Z,993.66
2023-04-02T07:28:09.640Z,993.66
2023-04-02T07:29:09.656Z,993.70
2023-04-02T07:30:09.604Z,993.70
2023-04-02T07:31:09.632Z,993.76
2023-04-02T07:32:09.606Z,993.80
2023-04-02T07:33:09.620Z,993.74
2023-04-02T07:34:09.613Z,993.83
2023-04-02T07:35:09.590Z,993.79
2023-04-02T07:36:09.600Z,993.83
2023-04-02T07:37:09.643Z,993.87
2023-04-02T07:38:09.554Z,993.87
2023-04-02T07:39:09.579Z,993.89
2023-04-02T07:40:09.557Z,993.93
2023-04-02T07:41:09.563Z,993.89
2023-04-02T07:42:09.564Z,993.95
2023-04-02T07:43:09.556Z,993.98
2023-04-02T07:44:09.591Z,993.99
2023-04-02T07:45:09.544Z,994.05
2023-04-02T07:46:09.565Z,994.05
2023-04-02T07:47:09.485Z,994.11
2023-04-02T07:48:09.581Z,994.10
2023-04-02T07:49:09.505Z,994.18
2023-04-02T07:50:09.481Z,994.28
2023-04-02T07:51:09.455Z,994.21
2023-04-02T07:52:09.470Z,994.29
2023-04-02T07:53:09.553Z,994.28
2023-04-02T07:54:09.509Z,994.24
2023-04-02T07:55:09.481Z,994.33
2023-04-02T07:56:09.476Z,994.32
2023-04-02T07:57:09.495Z,994.34
2023-04-02T07:58:09.421Z,994.40
2023-04-02T07:59:09.430Z,994.37
2023-04-02T08:00:09.406Z,994.45
2023-04-02T08:01:09.454Z,994.45
2023-04-02T08:02:09.444Z,994.46
2023-04-02T08:03:09.458Z,994.48
2023-04-02T08:04:09.412Z,994.52
2023-04-02T08:05:09.377Z,994.55
2023-04-02T08:06:09.392Z,994.56
2023-04-02T08:07:09.384Z,994.56
2023-04-02T08:08:09.363Z,994.54
2023-04-02T08:09:09.481Z,994.63
2023-04-02T08:10:09.409Z,994.68
2023-04-02T08:11:09.338Z,994.68
2023-04-02T08:12:09.365Z,994.70
2023-04-02T08:13:09.344Z,994.67
2023-04-02T08:14:09.324Z,994.72
2023-04-02T08:15:09.340Z,994.74
2023-04-02T08:16:09.384Z,994.70
2023-04-02T08:17:09.328Z,994.75
2023-04-02T08:18:09.350Z,994.81
2023-04-02T08:19:09.291Z,994.80
2023-04-02T08:20:09.298Z,994.79
2023-04-02T08:21:09.305Z,994.82
2023-04-02T08:22:09.310Z,994.88
2023-04-02T08:23:09.279Z,994.84
2023-04-02T08:24:09.268Z,994.88
2023-04-02T08:25:09.274Z,994.94
2023-04-02T08:26:09.286Z,994.86
2023-04-02T08:27:10.246Z,994.90
2023-04-02T08:28:09.251Z,994.93
2023-04-02T08:29:09.243Z,994.98
2023-04-02T08:30:09.237Z,995.02
2023-04-02T08:31:09.353Z,995.00
2023-04-02T08:32:09.222Z,995.06
2023-04-02T08:33:09.318Z,995.08
2023-04-02T08:34:09.234Z,995.09
2023-04-02T08:35:09.239Z,995.13
2023-04-02T08:36:09.232Z,995.12
2023-04-02T08:37:09.217Z,995.19
2023-04-02T08:38:09.190Z,995.12
2023-04-02T08:39:09.219Z,995.20
2023-04-02T08:40:09.181Z,995.18
2023-04-02T08:41:09.173Z,995.24
2023-04-02T08:42:09.190Z,995.20
2023-04-02T08:43:09.182Z,995.27
2023-04-02T08:44:09.175Z,995.27
2023-04-02T08:45:23.063Z,995.29
2023-04-02T08:46:11.151Z,995.28
2023-04-02T08:47:09.129Z,995.37
2023-04-02T08:48:09.189Z,995.36
2023-04-02T08:49:09.159Z,995.36
2023-04-02T08:50:09.092Z,995.41
2023-04-02T08:51:09.173Z,995.48
2023-04-02T08:52:10.095Z,995.55
2023-04-02T08:53:09.098Z,995.56
2023-04-02T08:54:09.088Z,995.55
2023-04-02T08:55:09.070Z,995.56
2023-04-02T08:56:09.059Z,995.62
2023-04-02T08:57:09.151Z,995.63
2023-04-02T08:58:09.181Z,995.68
2023-04-02T08:59:09.076Z,995.63
2023-04-02T09:00:09.054Z,995.67
2023-04-02T09:01:09.034Z,995.75
2023-04-02T09:02:09.045Z,995.71
2023-04-02T09:03:09.073Z,995.75
2023-04-02T09:04:09.047Z,995.75
2023-04-02T09:05:09.305Z,995.78
2023-04-02T09:06:09.004Z,995.79
2023-04-02T09:07:08.988Z,995.86
2023-04-02T09:08:09.000Z,995.86
2023-04-02T09:09:08.982Z,995.84
2023-04-02T09:10:09.011Z,995.83
2023-04-02T09:11:08.997Z,995.84
2023-04-02T09:12:08.957Z,995.94
2023-04-02T09:13:08.991Z,995.89
2023-04-02T09:14:08.932Z,995.93
2023-04-02T09:15:08.960Z,995.91
2023-04-02T09:16:08.966Z,995.92
2023-04-02T09:17:08.932Z,995.92
2023-04-02T09:18:08.949Z,995.91
2023-04-02T09:19:08.904Z,995.94
2023-04-02T09:20:08.952Z,995.99
2023-04-02T09:21:08.920Z,995.99
2023-04-02T09:22:08.996Z,996.02
2023-04-02T09:23:08.897Z,996.04
2023-04-02T09:24:08.893Z,996.03
2023-04-02T09:25:08.954Z,996.00
2023-04-02T09:26:08.927Z,996.05
2023-04-02T09:27:08.910Z,996.12
2023-04-02T09:28:08.868Z,996.08
2023-04-02T09:29:08.848Z,996.10
2023-04-02T09:30:08.857Z,996.08
2023-04-02T09:31:08.936Z,996.10
2023-04-02T09:32:08.842Z,996.15
2023-04-02T09:33:08.911Z,996.15
2023-04-02T09:34:08.841Z,996.11
2023-04-02T09:35:18.433Z,996.13
2023-04-02T09:36:10.886Z,996.19
2023-04-02T09:37:08.815Z,996.23
2023-04-02T09:38:08.818Z,996.21
2023-04-02T09:39:08.806Z,996.24
2023-04-02T09:40:08.803Z,996.28
2023-04-02T09:41:08.812Z,996.22
2023-04-02T09:42:09.778Z,996.26
2023-04-02T09:43:08.784Z,996.30
2023-04-02T09:44:08.760Z,996.33
2023-04-02T09:45:08.756Z,996.33
2023-04-02T09:46:08.801Z,996.39
2023-04-02T09:47:08.767Z,996.33
2023-04-02T09:48:08.801Z,996.39
2023-04-02T09:49:08.774Z,996.38
2023-04-02T09:50:08.749Z,996.48
2023-04-02T09:51:08.735Z,996.47
2023-04-02T09:52:08.897Z,996.47
2023-04-02T09:53:08.732Z,996.46
2023-04-02T09:54:08.712Z,996.56
2023-04-02T09:55:08.715Z,996.52
2023-04-02T09:56:08.679Z,996.53
2023-04-02T09:57:08.772Z,996.56
2023-04-02T09:58:08.696Z,996.60
2023-04-02T09:59:08.686Z,996.66
2023-04-02T10:00:12.259Z,996.67
2023-04-02T10:01:10.714Z,996.66
2023-04-02T10:02:08.653Z,996.71
2023-04-02T10:03:08.670Z,996.65
2023-04-02T10:04:08.768Z,996.77
2023-04-02T10:05:08.614Z,996.72
2023-04-02T10:06:08.631Z,996.77
2023-04-02T10:07:08.624Z,996.76
2023-04-02T10:08:08.665Z,996.76
2023-04-02T10:09:08.594Z,996.80
2023-04-02T10:10:09.622Z,996.79
2023-04-02T10:11:08.609Z,996.76
2023-04-02T10:12:08.619Z,996.86
2023-04-02T10:13:08.574Z,996.87
2023-04-02T10:14:08.580Z,996.82
2023-04-02T10:15:08.658Z,996.92
2023-04-02T10:16:08.631Z,996.89
2023-04-02T10:17:08.614Z,996.97
2023-04-02T10:18:08.583Z,996.95
2023-04-02T10:19:08.560Z,997.00
2023-04-02T10:20:08.583Z,997.04
2023-04-02T10:21:08.625Z,997.02
2023-04-02T10:22:08.547Z,997.07
2023-04-02T10:23:08.592Z,997.05
2023-04-02T10:24:08.588Z,997.07
2023-04-02T10:25:08.576Z,997.08
2023-04-02T10:26:08.560Z,997.14
2023-04-02T10:27:08.614Z,997.09
2023-04-02T10:28:08.693Z,997.12
2023-04-02T10:29:08.542Z,997.11
2023-04-02T10:30:08.504Z,997.07
2023-04-02T10:31:08.529Z,997.13
2023-04-02T10:32:08.514Z,997.17
2023-04-02T10:33:08.523Z,997.15
2023-04-02T10:34:08.463Z,997.21
2023-04-02T10:35:08.524Z,997.19
2023-04-02T10:36:08.572Z,997.23
2023-04-02T10:37:08.452Z,997.23
2023-04-02T10:38:08.502Z,997.25
2023-04-02T10:39:08.476Z,997.29
2023-04-02T10:40:08.433Z,997.20
2023-04-02T10:41:08.690Z,997.31
2023-04-02T10:42:08.435Z,997.31
2023-04-02T10:43:09.241Z,997.28
2023-04-02T10:44:18.946Z,997.39
2023-04-02T10:45:10.412Z,997.28
2023-04-02T10:46:08.497Z,997.37
2023-04-02T10:47:08.396Z,997.36
2023-04-02T10:48:08.408Z,997.39
2023-04-02T10:49:08.407Z,997.35
2023-04-02T10:50:08.402Z,997.37
2023-04-02T10:51:08.410Z,997.44
2023-04-02T10:52:08.361Z,997.44
2023-04-02T10:53:08.388Z,997.55
2023-04-02T10:54:08.363Z,997.51
2023-04-02T10:55:08.379Z,997.46
2023-04-02T10:56:08.462Z,997.50
2023-04-02T10:57:08.376Z,997.56
2023-04-02T10:58:08.335Z,997.60
2023-04-02T10:59:08.320Z,997.48
2023-04-02T11:00:08.332Z,997.70
2023-04-02T11:01:09.336Z,997.65
2023-04-02T11:02:08.357Z,997.57
2023-04-02T11:03:08.609Z,997.66
2023-04-02T11:04:08.352Z,997.71
2023-04-02T11:05:08.279Z,997.74
2023-04-02T11:06:08.984Z,997.67
2023-04-02T11:07:14.424Z,997.73
2023-04-02T11:08:10.277Z,997.71
2023-04-02T11:09:08.252Z,997.72
2023-04-02T11:10:08.290Z,997.73
2023-04-02T11:11:08.260Z,997.72
2023-04-02T11:12:08.259Z,997.74
2023-04-02T11:13:08.408Z,997.81
2023-04-02T11:14:08.312Z,997.87
2023-04-02T11:15:08.251Z,997.82
2023-04-02T11:16:08.256Z,997.86
2023-04-02T11:17:08.272Z,997.85
2023-04-02T11:18:08.295Z,997.88
2023-04-02T11:19:08.191Z,997.84
2023-04-02T11:20:08.202Z,997.86
2023-04-02T11:21:08.222Z,997.89
2023-04-02T11:22:08.207Z,997.89
2023-04-02T11:23:08.184Z,997.94
2023-04-02T11:24:08.200Z,997.89
2023-04-02T11:25:08.175Z,997.98
2023-04-02T11:26:08.199Z,997.94
2023-04-02T11:27:08.149Z,998.00
2023-04-02T11:28:08.153Z,997.99
2023-04-02T11:29:08.173Z,998.02
2023-04-02T11:30:08.141Z,998.00
2023-04-02T11:31:08.226Z,998.12
2023-04-02T11:32:08.151Z,998.04
2023-04-02T11:33:08.116Z,997.99
2023-04-02T11:34:08.138Z,998.05
2023-04-02T11:35:08.178Z,998.03
2023-04-02T11:36:08.137Z,998.07
2023-04-02T11:37:08.137Z,998.05
2023-04-02T11:38:08.089Z,998.03
2023-04-02T11:39:16.930Z,998.11
2023-04-02T11:40:10.226Z,998.04
2023-04-02T11:41:08.075Z,998.04
2023-04-02T11:42:08.093Z,998.11
2023-04-02T11:43:08.153Z,998.10
2023-04-02T11:44:08.059Z,998.10
2023-04-02T11:45:08.117Z,998.13
2023-04-02T11:46:08.071Z,998.16
2023-04-02T11:47:08.060Z,998.18
2023-04-02T11:48:08.585Z,998.18
2023-04-02T11:49:08.036Z,998.26
2023-04-02T11:50:08.087Z,998.26
2023-04-02T11:51:08.017Z,998.28
2023-04-02T11:52:12.363Z,998.40
2023-04-02T11:53:09.033Z,998.41
2023-04-02T11:54:08.025Z,998.49
2023-04-02T11:55:07.994Z,998.49
2023-04-02T11:56:08.022Z,998.45
2023-04-02T11:57:08.048Z,998.53
2023-04-02T11:58:08.006Z,998.54
2023-04-02T11:59:08.008Z,998.58
2023-04-02T12:00:08.037Z,998.58
2023-04-02T12:01:08.019Z,998.57
2023-04-02T12:02:08.028Z,998.64
2023-04-02T12:03:08.020Z,998.71
2023-04-02T12:04:07.972Z,998.69
2023-04-02T12:05:08.048Z,998.66
2023-04-02T12:06:07.934Z,998.74
2023-04-02T12:07:08.000Z,998.69
2023-04-02T12:08:07.948Z,998.74
2023-04-02T12:09:07.946Z,998.73
2023-04-02T12:10:07.907Z,998.78
2023-04-02T12:11:07.908Z,998.77
2023-04-02T12:12:07.884Z,998.73
2023-04-02T12:13:07.961Z,998.75
2023-04-02T12:14:07.888Z,998.76
2023-04-02T12:15:07.937Z,998.80
2023-04-02T12:16:07.857Z,998.80
2023-04-02T12:17:09.817Z,998.79
2023-04-02T12:18:08.868Z,998.82
2023-04-02T12:19:07.941Z,998.86
2023-04-02T12:20:07.958Z,998.87
2023-04-02T12:21:07.852Z,998.89
2023-04-02T12:22:07.827Z,998.89
2023-04-02T12:23:07.900Z,998.93
2023-04-02T12:24:07.923Z,998.95
2023-04-02T12:25:07.837Z,999.01
2023-04-02T12:26:07.804Z,998.92
2023-04-02T12:27:07.814Z,998.98
2023-04-02T12:28:07.807Z,998.95
2023-04-02T12:29:07.803Z,998.98